sensor_id;sensor_type;location;lat;lon;timestamp;P1;durP1;ratioP1;P2;durP2;ratioP2
24961;SDS011;12992;50.884;13.668;2022-10-14T00:01:39;15.55;;;7.20;;
24961;SDS011;12992;50.884;13.668;2022-10-14T00:04:04;10.82;;;6.95;;
24961;SDS011;12992;50.884;13.668;2022-10-14T00:06:31;14.75;;;7.25;;
24961;SDS011;12992;50.884;13.668;2022-10-14T00:08:58;18.05;;;7.20;;
24961;SDS011;12992;50.884;13.668;2022-10-14T00:11:26;14.10;;;7.72;;
24961;SDS011;12992;50.884;13.668;2022-10-14T00:13:54;14.77;;;7.22;;
24961;SDS011;12992;50.884;13.668;2022-10-14T00:16:25;14.70;;;7.18;;
24961;SDS011;12992;50.884;13.668;2022-10-14T00:18:52;12.85;;;7.38;;
24961;SDS011;12992;50.884;13.668;2022-10-14T00:21:18;13.05;;;6.57;;
24961;SDS011;12992;50.884;13.668;2022-10-14T00:23:44;10.18;;;6.80;;
24961;SDS011;12992;50.884;13.668;2022-10-14T00:26:14;12.13;;;7.18;;
24961;SDS011;12992;50.884;13.668;2022-10-14T00:28:50;12.30;;;6.68;;
24961;SDS011;12992;50.884;13.668;2022-10-14T00:31:15;11.65;;;6.95;;
24961;SDS011;12992;50.884;13.668;2022-10-14T00:33:45;13.18;;;6.80;;
24961;SDS011;12992;50.884;13.668;2022-10-14T00:36:13;12.20;;;6.13;;
24961;SDS011;12992;50.884;13.668;2022-10-14T00:38:39;11.15;;;6.22;;
24961;SDS011;12992;50.884;13.668;2022-10-14T00:41:06;11.45;;;6.93;;
24961;SDS011;12992;50.884;13.668;2022-10-14T00:46:51;9.57;;;6.10;;
24961;SDS011;12992;50.884;13.668;2022-10-14T00:49:18;13.15;;;6.88;;
24961;SDS011;12992;50.884;13.668;2022-10-14T00:51:50;12.27;;;6.47;;
24961;SDS011;12992;50.884;13.668;2022-10-14T00:54:18;10.65;;;6.40;;
24961;SDS011;12992;50.884;13.668;2022-10-14T00:56:48;12.15;;;6.38;;
24961;SDS011;12992;50.884;13.668;2022-10-14T00:59:14;9.23;;;6.30;;
24961;SDS011;12992;50.884;13.668;2022-10-14T01:01:40;11.68;;;6.82;;
24961;SDS011;12992;50.884;13.668;2022-10-14T01:04:06;11.60;;;6.78;;
24961;SDS011;12992;50.884;13.668;2022-10-14T01:12:01;10.02;;;5.90;;
24961;SDS011;12992;50.884;13.668;2022-10-14T01:14:42;13.20;;;6.93;;
24961;SDS011;12992;50.884;13.668;2022-10-14T01:17:20;10.30;;;6.53;;
24961;SDS011;12992;50.884;13.668;2022-10-14T01:25:33;9.88;;;6.63;;
24961;SDS011;12992;50.884;13.668;2022-10-14T01:28:10;9.90;;;6.40;;
24961;SDS011;12992;50.884;13.668;2022-10-14T01:30:41;9.75;;;6.60;;
24961;SDS011;12992;50.884;13.668;2022-10-14T01:33:13;9.98;;;6.25;;
24961;SDS011;12992;50.884;13.668;2022-10-14T01:38:35;11.82;;;5.93;;
24961;SDS011;12992;50.884;13.668;2022-10-14T01:41:27;14.63;;;6.80;;
24961;SDS011;12992;50.884;13.668;2022-10-14T01:43:58;14.82;;;6.25;;
24961;SDS011;12992;50.884;13.668;2022-10-14T01:46:29;10.88;;;6.22;;
24961;SDS011;12992;50.884;13.668;2022-10-14T01:48:59;12.02;;;6.60;;
24961;SDS011;12992;50.884;13.668;2022-10-14T01:51:29;11.10;;;6.57;;
24961;SDS011;12992;50.884;13.668;2022-10-14T01:54:03;13.38;;;6.70;;
24961;SDS011;12992;50.884;13.668;2022-10-14T01:56:33;9.73;;;6.18;;
24961;SDS011;12992;50.884;13.668;2022-10-14T01:59:00;12.80;;;7.30;;
24961;SDS011;12992;50.884;13.668;2022-10-14T02:01:29;12.00;;;6.43;;
24961;SDS011;12992;50.884;13.668;2022-10-14T02:03:54;11.35;;;6.45;;
24961;SDS011;12992;50.884;13.668;2022-10-14T02:06:22;10.50;;;6.45;;
24961;SDS011;12992;50.884;13.668;2022-10-14T02:08:55;13.43;;;7.85;;
24961;SDS011;12992;50.884;13.668;2022-10-14T02:11:26;10.90;;;6.45;;
24961;SDS011;12992;50.884;13.668;2022-10-14T02:16:37;11.15;;;6.88;;
24961;SDS011;12992;50.884;13.668;2022-10-14T02:24:20;12.30;;;6.35;;
24961;SDS011;12992;50.884;13.668;2022-10-14T02:26:51;9.77;;;6.28;;
24961;SDS011;12992;50.884;13.668;2022-10-14T02:29:19;12.20;;;7.38;;
24961;SDS011;12992;50.884;13.668;2022-10-14T02:31:51;11.70;;;6.80;;
24961;SDS011;12992;50.884;13.668;2022-10-14T02:34:19;14.55;;;7.60;;
24961;SDS011;12992;50.884;13.668;2022-10-14T02:36:47;12.63;;;7.25;;
24961;SDS011;12992;50.884;13.668;2022-10-14T02:39:14;11.93;;;7.38;;
24961;SDS011;12992;50.884;13.668;2022-10-14T02:41:45;15.02;;;7.10;;
24961;SDS011;12992;50.884;13.668;2022-10-14T02:44:11;10.77;;;6.70;;
24961;SDS011;12992;50.884;13.668;2022-10-14T02:46:37;14.90;;;7.70;;
24961;SDS011;12992;50.884;13.668;2022-10-14T02:49:07;13.77;;;7.22;;
24961;SDS011;12992;50.884;13.668;2022-10-14T02:51:34;11.23;;;7.25;;
24961;SDS011;12992;50.884;13.668;2022-10-14T02:54:00;14.70;;;7.65;;
24961;SDS011;12992;50.884;13.668;2022-10-14T02:56:26;11.07;;;7.15;;
24961;SDS011;12992;50.884;13.668;2022-10-14T02:58:52;17.00;;;7.95;;
24961;SDS011;12992;50.884;13.668;2022-10-14T03:01:17;12.32;;;7.07;;
24961;SDS011;12992;50.884;13.668;2022-10-14T03:03:43;13.00;;;7.03;;
24961;SDS011;12992;50.884;13.668;2022-10-14T03:06:08;15.20;;;7.63;;
24961;SDS011;12992;50.884;13.668;2022-10-14T03:08:34;10.07;;;6.93;;
24961;SDS011;12992;50.884;13.668;2022-10-14T03:11:01;11.43;;;6.93;;
24961;SDS011;12992;50.884;13.668;2022-10-14T03:13:26;13.95;;;7.78;;
24961;SDS011;12992;50.884;13.668;2022-10-14T03:15:52;13.35;;;6.03;;
24961;SDS011;12992;50.884;13.668;2022-10-14T03:18:18;13.60;;;7.45;;
24961;SDS011;12992;50.884;13.668;2022-10-14T03:20:46;15.13;;;8.15;;
24961;SDS011;12992;50.884;13.668;2022-10-14T03:23:17;13.75;;;7.32;;
24961;SDS011;12992;50.884;13.668;2022-10-14T03:25:45;14.50;;;7.63;;
24961;SDS011;12992;50.884;13.668;2022-10-14T03:28:20;13.48;;;7.90;;
24961;SDS011;12992;50.884;13.668;2022-10-14T03:31:05;13.60;;;6.90;;
24961;SDS011;12992;50.884;13.668;2022-10-14T03:33:44;14.13;;;7.05;;
24961;SDS011;12992;50.884;13.668;2022-10-14T03:36:11;13.52;;;6.68;;
24961;SDS011;12992;50.884;13.668;2022-10-14T03:38:43;16.90;;;8.35;;
24961;SDS011;12992;50.884;13.668;2022-10-14T03:41:17;14.15;;;8.18;;
24961;SDS011;12992;50.884;13.668;2022-10-14T03:43:42;11.20;;;7.10;;
24961;SDS011;12992;50.884;13.668;2022-10-14T03:46:09;10.55;;;7.05;;
24961;SDS011;12992;50.884;13.668;2022-10-14T03:48:35;14.82;;;7.68;;
24961;SDS011;12992;50.884;13.668;2022-10-14T03:51:00;13.52;;;8.05;;
24961;SDS011;12992;50.884;13.668;2022-10-14T03:53:25;14.25;;;7.65;;
24961;SDS011;12992;50.884;13.668;2022-10-14T03:55:51;11.20;;;6.78;;
24961;SDS011;12992;50.884;13.668;2022-10-14T03:58:16;11.60;;;7.55;;
24961;SDS011;12992;50.884;13.668;2022-10-14T04:00:49;12.18;;;7.65;;
24961;SDS011;12992;50.884;13.668;2022-10-14T04:03:31;12.23;;;8.10;;
24961;SDS011;12992;50.884;13.668;2022-10-14T04:05:56;14.88;;;8.50;;
24961;SDS011;12992;50.884;13.668;2022-10-14T04:08:24;12.75;;;7.88;;
24961;SDS011;12992;50.884;13.668;2022-10-14T04:10:55;15.60;;;9.30;;
24961;SDS011;12992;50.884;13.668;2022-10-14T04:13:22;15.23;;;9.30;;
24961;SDS011;12992;50.884;13.668;2022-10-14T04:15:47;15.60;;;8.25;;
24961;SDS011;12992;50.884;13.668;2022-10-14T04:18:20;13.45;;;8.45;;
24961;SDS011;12992;50.884;13.668;2022-10-14T04:20:47;15.02;;;8.60;;
24961;SDS011;12992;50.884;13.668;2022-10-14T04:23:14;17.10;;;8.70;;
24961;SDS011;12992;50.884;13.668;2022-10-14T04:25:42;17.42;;;8.70;;
24961;SDS011;12992;50.884;13.668;2022-10-14T04:28:09;13.93;;;8.05;;
24961;SDS011;12992;50.884;13.668;2022-10-14T04:30:48;14.10;;;7.88;;
24961;SDS011;12992;50.884;13.668;2022-10-14T04:33:20;18.08;;;8.85;;
24961;SDS011;12992;50.884;13.668;2022-10-14T04:35:47;13.05;;;8.02;;
24961;SDS011;12992;50.884;13.668;2022-10-14T04:38:20;11.75;;;7.57;;
24961;SDS011;12992;50.884;13.668;2022-10-14T04:43:18;14.30;;;8.27;;
24961;SDS011;12992;50.884;13.668;2022-10-14T04:45:45;11.52;;;7.65;;
24961;SDS011;12992;50.884;13.668;2022-10-14T04:48:15;12.80;;;7.90;;
24961;SDS011;12992;50.884;13.668;2022-10-14T04:50:42;18.15;;;9.15;;
24961;SDS011;12992;50.884;13.668;2022-10-14T04:53:37;15.55;;;8.57;;
24961;SDS011;12992;50.884;13.668;2022-10-14T04:56:14;16.23;;;8.95;;
24961;SDS011;12992;50.884;13.668;2022-10-14T04:58:50;16.92;;;9.10;;
24961;SDS011;12992;50.884;13.668;2022-10-14T05:01:15;14.32;;;8.57;;
24961;SDS011;12992;50.884;13.668;2022-10-14T05:03:43;18.13;;;8.68;;
24961;SDS011;12992;50.884;13.668;2022-10-14T05:06:09;16.23;;;8.85;;
24961;SDS011;12992;50.884;13.668;2022-10-14T05:08:39;19.55;;;9.50;;
24961;SDS011;12992;50.884;13.668;2022-10-14T05:11:08;16.38;;;8.05;;
24961;SDS011;12992;50.884;13.668;2022-10-14T05:13:46;18.20;;;8.55;;
24961;SDS011;12992;50.884;13.668;2022-10-14T05:16:14;12.40;;;7.68;;
24961;SDS011;12992;50.884;13.668;2022-10-14T05:18:39;14.05;;;7.97;;
24961;SDS011;12992;50.884;13.668;2022-10-14T05:21:10;13.40;;;7.97;;
24961;SDS011;12992;50.884;13.668;2022-10-14T05:23:49;15.48;;;8.02;;
24961;SDS011;12992;50.884;13.668;2022-10-14T05:26:14;14.10;;;7.90;;
24961;SDS011;12992;50.884;13.668;2022-10-14T05:28:41;15.55;;;7.97;;
24961;SDS011;12992;50.884;13.668;2022-10-14T05:31:07;13.43;;;7.60;;
24961;SDS011;12992;50.884;13.668;2022-10-14T05:33:39;13.52;;;8.57;;
24961;SDS011;12992;50.884;13.668;2022-10-14T05:36:05;14.63;;;8.13;;
24961;SDS011;12992;50.884;13.668;2022-10-14T05:38:32;17.60;;;8.13;;
24961;SDS011;12992;50.884;13.668;2022-10-14T05:40:58;12.73;;;7.70;;
24961;SDS011;12992;50.884;13.668;2022-10-14T05:43:24;13.50;;;8.77;;
24961;SDS011;12992;50.884;13.668;2022-10-14T05:45:50;13.90;;;7.97;;
24961;SDS011;12992;50.884;13.668;2022-10-14T05:48:16;14.80;;;8.77;;
24961;SDS011;12992;50.884;13.668;2022-10-14T05:50:42;13.43;;;9.15;;
24961;SDS011;12992;50.884;13.668;2022-10-14T05:53:10;13.60;;;8.25;;
24961;SDS011;12992;50.884;13.668;2022-10-14T05:55:42;18.90;;;8.77;;
24961;SDS011;12992;50.884;13.668;2022-10-14T05:58:07;15.48;;;9.40;;
24961;SDS011;12992;50.884;13.668;2022-10-14T06:00:37;15.10;;;8.57;;
24961;SDS011;12992;50.884;13.668;2022-10-14T06:03:08;13.82;;;8.40;;
24961;SDS011;12992;50.884;13.668;2022-10-14T06:05:38;13.40;;;7.97;;
24961;SDS011;12992;50.884;13.668;2022-10-14T06:08:03;17.70;;;9.85;;
24961;SDS011;12992;50.884;13.668;2022-10-14T06:10:33;14.05;;;8.27;;
24961;SDS011;12992;50.884;13.668;2022-10-14T06:12:59;16.40;;;8.65;;
24961;SDS011;12992;50.884;13.668;2022-10-14T06:15:25;15.60;;;9.23;;
24961;SDS011;12992;50.884;13.668;2022-10-14T06:17:52;18.00;;;9.35;;
24961;SDS011;12992;50.884;13.668;2022-10-14T06:20:18;15.65;;;8.70;;
24961;SDS011;12992;50.884;13.668;2022-10-14T06:22:43;12.43;;;7.95;;
24961;SDS011;12992;50.884;13.668;2022-10-14T06:25:09;15.25;;;9.25;;
24961;SDS011;12992;50.884;13.668;2022-10-14T06:27:35;13.50;;;8.50;;
24961;SDS011;12992;50.884;13.668;2022-10-14T06:30:00;19.23;;;8.95;;
24961;SDS011;12992;50.884;13.668;2022-10-14T06:32:25;15.98;;;9.57;;
24961;SDS011;12992;50.884;13.668;2022-10-14T06:34:51;14.82;;;8.95;;
24961;SDS011;12992;50.884;13.668;2022-10-14T06:37:16;13.93;;;8.32;;
24961;SDS011;12992;50.884;13.668;2022-10-14T06:39:41;11.75;;;7.70;;
24961;SDS011;12992;50.884;13.668;2022-10-14T06:42:09;14.93;;;9.07;;
24961;SDS011;12992;50.884;13.668;2022-10-14T06:44:34;14.90;;;8.15;;
24961;SDS011;12992;50.884;13.668;2022-10-14T06:47:00;12.85;;;8.38;;
24961;SDS011;12992;50.884;13.668;2022-10-14T06:49:25;15.82;;;9.52;;
24961;SDS011;12992;50.884;13.668;2022-10-14T06:51:50;13.60;;;8.52;;
24961;SDS011;12992;50.884;13.668;2022-10-14T06:54:16;15.63;;;8.63;;
24961;SDS011;12992;50.884;13.668;2022-10-14T06:56:41;13.48;;;8.57;;
24961;SDS011;12992;50.884;13.668;2022-10-14T06:59:06;16.85;;;9.13;;
24961;SDS011;12992;50.884;13.668;2022-10-14T07:01:32;15.07;;;8.43;;
24961;SDS011;12992;50.884;13.668;2022-10-14T07:03:57;12.80;;;7.72;;
24961;SDS011;12992;50.884;13.668;2022-10-14T07:06:22;13.23;;;7.90;;
24961;SDS011;12992;50.884;13.668;2022-10-14T07:08:48;10.75;;;7.30;;
24961;SDS011;12992;50.884;13.668;2022-10-14T07:11:13;13.23;;;7.43;;
24961;SDS011;12992;50.884;13.668;2022-10-14T07:13:39;12.38;;;7.53;;
24961;SDS011;12992;50.884;13.668;2022-10-14T07:16:04;15.18;;;10.32;;
24961;SDS011;12992;50.884;13.668;2022-10-14T07:18:30;16.77;;;11.60;;
24961;SDS011;12992;50.884;13.668;2022-10-14T07:20:59;17.40;;;11.30;;
24961;SDS011;12992;50.884;13.668;2022-10-14T07:23:26;19.63;;;12.15;;
24961;SDS011;12992;50.884;13.668;2022-10-14T07:25:51;13.05;;;8.45;;
24961;SDS011;12992;50.884;13.668;2022-10-14T07:28:20;13.20;;;8.75;;
24961;SDS011;12992;50.884;13.668;2022-10-14T07:30:45;14.52;;;8.60;;
24961;SDS011;12992;50.884;13.668;2022-10-14T07:33:19;13.95;;;7.75;;
24961;SDS011;12992;50.884;13.668;2022-10-14T07:35:45;10.48;;;7.18;;
24961;SDS011;12992;50.884;13.668;2022-10-14T07:38:10;11.13;;;7.15;;
24961;SDS011;12992;50.884;13.668;2022-10-14T07:40:35;11.48;;;6.25;;
24961;SDS011;12992;50.884;13.668;2022-10-14T07:43:01;7.68;;;6.00;;
24961;SDS011;12992;50.884;13.668;2022-10-14T07:45:26;9.70;;;5.90;;
24961;SDS011;12992;50.884;13.668;2022-10-14T07:47:52;8.88;;;5.10;;
24961;SDS011;12992;50.884;13.668;2022-10-14T07:50:18;8.10;;;5.00;;
24961;SDS011;12992;50.884;13.668;2022-10-14T07:52:43;9.65;;;5.78;;
24961;SDS011;12992;50.884;13.668;2022-10-14T07:55:09;9.73;;;5.03;;
24961;SDS011;12992;50.884;13.668;2022-10-14T07:57:34;7.40;;;4.78;;
24961;SDS011;12992;50.884;13.668;2022-10-14T08:00:00;7.72;;;4.63;;
24961;SDS011;12992;50.884;13.668;2022-10-14T08:02:25;14.68;;;5.38;;
24961;SDS011;12992;50.884;13.668;2022-10-14T08:04:52;5.90;;;4.43;;
24961;SDS011;12992;50.884;13.668;2022-10-14T08:07:19;7.22;;;3.90;;
24961;SDS011;12992;50.884;13.668;2022-10-14T08:09:45;9.00;;;4.18;;
24961;SDS011;12992;50.884;13.668;2022-10-14T08:12:11;5.32;;;4.05;;
24961;SDS011;12992;50.884;13.668;2022-10-14T08:14:36;6.50;;;3.83;;
24961;SDS011;12992;50.884;13.668;2022-10-14T08:17:02;6.25;;;4.13;;
24961;SDS011;12992;50.884;13.668;2022-10-14T08:19:27;6.35;;;3.70;;
24961;SDS011;12992;50.884;13.668;2022-10-14T08:21:52;5.68;;;4.13;;
24961;SDS011;12992;50.884;13.668;2022-10-14T08:24:18;6.78;;;3.63;;
24961;SDS011;12992;50.884;13.668;2022-10-14T08:26:53;4.50;;;3.70;;
24961;SDS011;12992;50.884;13.668;2022-10-14T08:29:21;5.20;;;4.13;;
24961;SDS011;12992;50.884;13.668;2022-10-14T08:31:47;5.70;;;3.72;;
24961;SDS011;12992;50.884;13.668;2022-10-14T08:34:13;7.45;;;4.05;;
24961;SDS011;12992;50.884;13.668;2022-10-14T08:36:38;5.22;;;3.85;;
24961;SDS011;12992;50.884;13.668;2022-10-14T08:39:04;7.40;;;3.80;;
24961;SDS011;12992;50.884;13.668;2022-10-14T08:47:01;5.40;;;3.45;;
24961;SDS011;12992;50.884;13.668;2022-10-14T08:49:33;5.78;;;4.30;;
24961;SDS011;12992;50.884;13.668;2022-10-14T08:52:19;5.47;;;3.65;;
24961;SDS011;12992;50.884;13.668;2022-10-14T08:54:50;7.07;;;4.32;;
24961;SDS011;12992;50.884;13.668;2022-10-14T08:57:21;6.00;;;3.97;;
24961;SDS011;12992;50.884;13.668;2022-10-14T08:59:50;7.22;;;4.00;;
24961;SDS011;12992;50.884;13.668;2022-10-14T09:02:23;7.45;;;4.03;;
24961;SDS011;12992;50.884;13.668;2022-10-14T09:04:58;8.13;;;4.10;;
24961;SDS011;12992;50.884;13.668;2022-10-14T09:07:24;5.35;;;4.10;;
24961;SDS011;12992;50.884;13.668;2022-10-14T09:09:50;7.45;;;3.55;;
24961;SDS011;12992;50.884;13.668;2022-10-14T09:12:22;5.50;;;3.80;;
24961;SDS011;12992;50.884;13.668;2022-10-14T09:15:02;4.80;;;3.65;;
24961;SDS011;12992;50.884;13.668;2022-10-14T09:17:35;4.57;;;3.87;;
24961;SDS011;12992;50.884;13.668;2022-10-14T09:22:32;4.43;;;3.30;;
24961;SDS011;12992;50.884;13.668;2022-10-14T09:24:58;6.20;;;4.00;;
24961;SDS011;12992;50.884;13.668;2022-10-14T09:27:25;4.78;;;3.78;;
24961;SDS011;12992;50.884;13.668;2022-10-14T09:29:56;6.15;;;3.90;;
24961;SDS011;12992;50.884;13.668;2022-10-14T09:34:59;4.20;;;3.30;;
24961;SDS011;12992;50.884;13.668;2022-10-14T09:43:16;6.30;;;3.35;;
24961;SDS011;12992;50.884;13.668;2022-10-14T09:45:17;5.97;;;3.63;;
24961;SDS011;12992;50.884;13.668;2022-10-14T09:51:00;6.53;;;3.92;;
24961;SDS011;12992;50.884;13.668;2022-10-14T09:53:14;4.97;;;3.40;;
24961;SDS011;12992;50.884;13.668;2022-10-14T09:55:53;7.10;;;4.97;;
24961;SDS011;12992;50.884;13.668;2022-10-14T09:58:25;6.70;;;4.60;;
24961;SDS011;12992;50.884;13.668;2022-10-14T10:00:55;8.15;;;5.35;;
24961;SDS011;12992;50.884;13.668;2022-10-14T10:03:31;8.32;;;4.57;;
24961;SDS011;12992;50.884;13.668;2022-10-14T10:06:00;8.65;;;5.35;;
24961;SDS011;12992;50.884;13.668;2022-10-14T10:08:28;8.20;;;5.18;;
24961;SDS011;12992;50.884;13.668;2022-10-14T10:11:10;6.97;;;4.60;;
24961;SDS011;12992;50.884;13.668;2022-10-14T10:13:44;8.65;;;5.22;;
24961;SDS011;12992;50.884;13.668;2022-10-14T10:16:18;6.93;;;4.70;;
24961;SDS011;12992;50.884;13.668;2022-10-14T10:18:46;8.18;;;5.05;;
24961;SDS011;12992;50.884;13.668;2022-10-14T10:21:16;5.32;;;4.40;;
24961;SDS011;12992;50.884;13.668;2022-10-14T10:24:11;5.75;;;4.45;;
24961;SDS011;12992;50.884;13.668;2022-10-14T10:26:41;4.63;;;3.75;;
24961;SDS011;12992;50.884;13.668;2022-10-14T10:29:08;5.82;;;4.45;;
24961;SDS011;12992;50.884;13.668;2022-10-14T10:32:00;4.90;;;4.03;;
24961;SDS011;12992;50.884;13.668;2022-10-14T10:37:24;4.80;;;3.60;;
24961;SDS011;12992;50.884;13.668;2022-10-14T10:42:32;6.13;;;4.32;;
24961;SDS011;12992;50.884;13.668;2022-10-14T10:47:57;6.38;;;4.05;;
24961;SDS011;12992;50.884;13.668;2022-10-14T10:50:29;6.07;;;4.28;;
24961;SDS011;12992;50.884;13.668;2022-10-14T10:53:11;5.90;;;4.35;;
24961;SDS011;12992;50.884;13.668;2022-10-14T11:04:02;5.75;;;4.50;;
24961;SDS011;12992;50.884;13.668;2022-10-14T11:06:57;7.97;;;4.20;;
24961;SDS011;12992;50.884;13.668;2022-10-14T11:10:30;9.48;;;4.95;;
24961;SDS011;12992;50.884;13.668;2022-10-14T11:13:23;6.10;;;4.65;;
24961;SDS011;12992;50.884;13.668;2022-10-14T11:24:49;4.35;;;3.45;;
24961;SDS011;12992;50.884;13.668;2022-10-14T11:31:00;4.25;;;2.95;;
24961;SDS011;12992;50.884;13.668;2022-10-14T11:36:48;4.00;;;3.25;;
24961;SDS011;12992;50.884;13.668;2022-10-14T11:39:37;5.72;;;3.03;;
24961;SDS011;12992;50.884;13.668;2022-10-14T11:45:08;6.75;;;3.35;;
24961;SDS011;12992;50.884;13.668;2022-10-14T11:47:36;7.18;;;3.42;;
24961;SDS011;12992;50.884;13.668;2022-10-14T11:50:15;5.65;;;3.35;;
24961;SDS011;12992;50.884;13.668;2022-10-14T11:52:52;4.13;;;3.08;;
24961;SDS011;12992;50.884;13.668;2022-10-14T11:55:25;3.72;;;3.00;;
24961;SDS011;12992;50.884;13.668;2022-10-14T11:58:30;4.73;;;3.03;;
24961;SDS011;12992;50.884;13.668;2022-10-14T12:00:50;3.40;;;2.67;;
24961;SDS011;12992;50.884;13.668;2022-10-14T12:06:10;3.72;;;2.95;;
24961;SDS011;12992;50.884;13.668;2022-10-14T12:14:09;4.57;;;3.90;;
24961;SDS011;12992;50.884;13.668;2022-10-14T12:16:43;6.63;;;5.05;;
24961;SDS011;12992;50.884;13.668;2022-10-14T12:19:12;6.68;;;4.00;;
24961;SDS011;12992;50.884;13.668;2022-10-14T12:21:44;4.50;;;3.42;;
24961;SDS011;12992;50.884;13.668;2022-10-14T12:24:31;5.63;;;3.67;;
24961;SDS011;12992;50.884;13.668;2022-10-14T12:27:03;4.05;;;3.30;;
24961;SDS011;12992;50.884;13.668;2022-10-14T12:29:41;4.22;;;3.13;;
24961;SDS011;12992;50.884;13.668;2022-10-14T12:34:41;4.82;;;3.28;;
24961;SDS011;12992;50.884;13.668;2022-10-14T12:39:48;3.72;;;3.00;;
24961;SDS011;12992;50.884;13.668;2022-10-14T12:42:15;5.65;;;3.45;;
24961;SDS011;12992;50.884;13.668;2022-10-14T12:44:52;4.20;;;3.50;;
24961;SDS011;12992;50.884;13.668;2022-10-14T12:47:21;6.82;;;4.00;;
24961;SDS011;12992;50.884;13.668;2022-10-14T12:49:48;5.65;;;3.60;;
24961;SDS011;12992;50.884;13.668;2022-10-14T12:52:18;4.50;;;3.63;;
24961;SDS011;12992;50.884;13.668;2022-10-14T12:54:48;6.75;;;5.15;;
24961;SDS011;12992;50.884;13.668;2022-10-14T12:57:35;6.25;;;4.78;;
24961;SDS011;12992;50.884;13.668;2022-10-14T13:00:05;7.28;;;4.90;;
24961;SDS011;12992;50.884;13.668;2022-10-14T13:02:46;9.90;;;4.80;;
24961;SDS011;12992;50.884;13.668;2022-10-14T13:21:09;9.77;;;6.60;;
24961;SDS011;12992;50.884;13.668;2022-10-14T13:23:45;9.02;;;6.70;;
24961;SDS011;12992;50.884;13.668;2022-10-14T13:26:27;10.63;;;6.68;;
24961;SDS011;12992;50.884;13.668;2022-10-14T13:32:05;9.57;;;6.25;;
24961;SDS011;12992;50.884;13.668;2022-10-14T13:34:50;9.70;;;6.35;;
24961;SDS011;12992;50.884;13.668;2022-10-14T13:37:31;8.05;;;5.30;;
24961;SDS011;12992;50.884;13.668;2022-10-14T13:42:59;7.03;;;4.85;;
24961;SDS011;12992;50.884;13.668;2022-10-14T13:46:11;6.80;;;5.15;;
24961;SDS011;12992;50.884;13.668;2022-10-14T13:48:39;9.30;;;5.95;;
24961;SDS011;12992;50.884;13.668;2022-10-14T13:53:49;6.65;;;5.72;;
24961;SDS011;12992;50.884;13.668;2022-10-14T13:56:36;11.07;;;5.60;;
24961;SDS011;12992;50.884;13.668;2022-10-14T13:59:00;10.82;;;6.18;;
24961;SDS011;12992;50.884;13.668;2022-10-14T14:01:29;8.10;;;5.07;;
24961;SDS011;12992;50.884;13.668;2022-10-14T14:03:58;9.88;;;5.90;;
24961;SDS011;12992;50.884;13.668;2022-10-14T14:06:24;9.15;;;6.35;;
24961;SDS011;12992;50.884;13.668;2022-10-14T14:11:32;11.18;;;8.45;;
24961;SDS011;12992;50.884;13.668;2022-10-14T14:14:04;12.20;;;8.45;;
24961;SDS011;12992;50.884;13.668;2022-10-14T14:19:19;12.68;;;7.50;;
24961;SDS011;12992;50.884;13.668;2022-10-14T14:21:49;11.25;;;7.78;;
24961;SDS011;12992;50.884;13.668;2022-10-14T14:24:19;11.77;;;7.88;;
24961;SDS011;12992;50.884;13.668;2022-10-14T14:26:50;11.10;;;7.55;;
24961;SDS011;12992;50.884;13.668;2022-10-14T14:29:22;9.70;;;6.25;;
24961;SDS011;12992;50.884;13.668;2022-10-14T14:31:50;9.13;;;6.07;;
24961;SDS011;12992;50.884;13.668;2022-10-14T14:34:17;11.90;;;6.03;;
24961;SDS011;12992;50.884;13.668;2022-10-14T14:36:44;8.38;;;7.00;;
24961;SDS011;12992;50.884;13.668;2022-10-14T14:39:21;12.45;;;7.15;;
24961;SDS011;12992;50.884;13.668;2022-10-14T14:41:52;10.38;;;7.07;;
24961;SDS011;12992;50.884;13.668;2022-10-14T14:44:20;9.20;;;6.68;;
24961;SDS011;12992;50.884;13.668;2022-10-14T14:46:48;8.70;;;6.50;;
24961;SDS011;12992;50.884;13.668;2022-10-14T14:49:16;9.77;;;7.57;;
24961;SDS011;12992;50.884;13.668;2022-10-14T14:51:51;12.82;;;7.45;;
24961;SDS011;12992;50.884;13.668;2022-10-14T14:54:17;11.85;;;7.47;;
24961;SDS011;12992;50.884;13.668;2022-10-14T14:56:49;10.55;;;7.07;;
24961;SDS011;12992;50.884;13.668;2022-10-14T14:59:26;11.35;;;7.00;;
24961;SDS011;12992;50.884;13.668;2022-10-14T15:01:54;8.48;;;7.10;;
24961;SDS011;12992;50.884;13.668;2022-10-14T15:04:26;11.10;;;7.05;;
24961;SDS011;12992;50.884;13.668;2022-10-14T15:09:48;10.52;;;5.97;;
24961;SDS011;12992;50.884;13.668;2022-10-14T15:12:17;7.03;;;6.32;;
24961;SDS011;12992;50.884;13.668;2022-10-14T15:17:36;10.02;;;7.00;;
24961;SDS011;12992;50.884;13.668;2022-10-14T15:22:38;9.50;;;6.87;;
24961;SDS011;12992;50.884;13.668;2022-10-14T15:25:21;11.10;;;7.25;;
24961;SDS011;12992;50.884;13.668;2022-10-14T15:32:58;11.30;;;7.55;;
24961;SDS011;12992;50.884;13.668;2022-10-14T15:35:25;12.43;;;7.55;;
24961;SDS011;12992;50.884;13.668;2022-10-14T15:37:51;10.75;;;7.70;;
24961;SDS011;12992;50.884;13.668;2022-10-14T15:40:19;11.00;;;7.55;;
24961;SDS011;12992;50.884;13.668;2022-10-14T15:42:47;10.70;;;7.10;;
24961;SDS011;12992;50.884;13.668;2022-10-14T15:45:13;9.90;;;7.03;;
24961;SDS011;12992;50.884;13.668;2022-10-14T15:47:39;10.25;;;6.95;;
24961;SDS011;12992;50.884;13.668;2022-10-14T15:50:06;12.57;;;7.90;;
24961;SDS011;12992;50.884;13.668;2022-10-14T15:52:37;10.93;;;6.97;;
24961;SDS011;12992;50.884;13.668;2022-10-14T15:55:08;13.38;;;8.27;;
24961;SDS011;12992;50.884;13.668;2022-10-14T15:57:39;9.45;;;7.68;;
24961;SDS011;12992;50.884;13.668;2022-10-14T16:00:05;13.00;;;8.60;;
24961;SDS011;12992;50.884;13.668;2022-10-14T16:02:36;12.68;;;8.05;;
24961;SDS011;12992;50.884;13.668;2022-10-14T16:05:05;11.02;;;7.57;;
24961;SDS011;12992;50.884;13.668;2022-10-14T16:07:32;12.63;;;8.43;;
24961;SDS011;12992;50.884;13.668;2022-10-14T16:09:57;11.10;;;8.18;;
24961;SDS011;12992;50.884;13.668;2022-10-14T16:12:22;12.43;;;8.00;;
24961;SDS011;12992;50.884;13.668;2022-10-14T16:14:48;12.75;;;7.97;;
24961;SDS011;12992;50.884;13.668;2022-10-14T16:17:13;11.75;;;7.47;;
24961;SDS011;12992;50.884;13.668;2022-10-14T16:19:39;11.57;;;7.70;;
24961;SDS011;12992;50.884;13.668;2022-10-14T16:22:05;11.50;;;7.35;;
24961;SDS011;12992;50.884;13.668;2022-10-14T16:24:31;9.80;;;7.63;;
24961;SDS011;12992;50.884;13.668;2022-10-14T16:26:56;9.82;;;7.00;;
24961;SDS011;12992;50.884;13.668;2022-10-14T16:29:22;10.80;;;7.75;;
24961;SDS011;12992;50.884;13.668;2022-10-14T16:31:47;12.90;;;6.97;;
24961;SDS011;12992;50.884;13.668;2022-10-14T16:34:15;12.60;;;7.97;;
24961;SDS011;12992;50.884;13.668;2022-10-14T16:36:41;13.77;;;8.73;;
24961;SDS011;12992;50.884;13.668;2022-10-14T16:39:10;14.10;;;9.55;;
24961;SDS011;12992;50.884;13.668;2022-10-14T16:41:37;18.15;;;9.85;;
24961;SDS011;12992;50.884;13.668;2022-10-14T16:44:02;16.00;;;9.73;;
24961;SDS011;12992;50.884;13.668;2022-10-14T16:46:29;12.73;;;9.52;;
24961;SDS011;12992;50.884;13.668;2022-10-14T16:49:13;19.13;;;10.77;;
24961;SDS011;12992;50.884;13.668;2022-10-14T16:51:39;22.50;;;11.63;;
24961;SDS011;12992;50.884;13.668;2022-10-14T16:54:05;16.10;;;11.32;;
24961;SDS011;12992;50.884;13.668;2022-10-14T16:56:31;18.65;;;11.25;;
24961;SDS011;12992;50.884;13.668;2022-10-14T16:59:15;19.63;;;12.40;;
24961;SDS011;12992;50.884;13.668;2022-10-14T17:01:40;22.98;;;12.93;;